Flight Track Log - Related Links

Times and Time Zones

All times are in EDT time to prevent confusion due to time zone crossing. See the FLG3780 flight status page for this flight to view local times or setup timezone preferences in your user account.

Time Position Orientation Groundspeed Altitude Reporting Facility
EDT Latitude Longitude Course Direction KTS MPH feet Rate Location/Type
Sat 09:30:50 AM 42.7672 -73.8061 283° West 154 177 1,200  Level Boston Center
Sat 09:32:56 AM 42.8686 -73.8736 334° Northwest 241 277 5,400 2,355 Climbing Boston Center
Sat 09:33:00 AM 42.8127 -74.1885 281° West  Level FlightAware Approximate
Sat 09:33:56 AM 42.9281 -73.9514 316° Northwest 270 311 8,500  Level Boston Center
Sat 09:34:00 AM 42.8318 -74.3223 281° West  Level FlightAware Approximate
Sat 09:34:56 AM 42.9725 -74.0575 300° West 287 330 11,000  Level Boston Center
Sat 09:35:00 AM 42.8537 -74.4554 283° West  Level FlightAware Approximate
Sat 09:35:56 AM 43.0022 -74.1661 291° West 318 366 12,100  Level Boston Center
Sat 09:36:00 AM 42.8861 -74.5824 283° West  Level FlightAware Approximate
Sat 09:36:56 AM 43.0144 -74.3114 277° West 350 403 14,200  Level Boston Center
Sat 09:37:56 AM 43.0267 -74.4567 277° West 380 437 16,000 1,550 Climbing Boston Center
Sat 09:38:56 AM 43.0386 -74.5992 277° West 391 450 17,300 1,100 Climbing Boston Center
Sat 09:39:56 AM 43.0503 -74.7500 276° West 396 456 18,200 900 Climbing Boston Center
Sat 09:40:56 AM 43.0619 -74.8897 277° West 408 470 19,100 1,050 Climbing Boston Center
Sat 09:41:56 AM 43.0731 -75.0467 276° West 408 470 20,300 1,200 Climbing Boston Center
Sat 09:42:56 AM 43.0861 -75.2008 277° West 408 470 21,500 1,200 Climbing Boston Center
Sat 09:43:56 AM 43.0967 -75.3547 275° West 408 470 22,700 1,100 Climbing Boston Center
Sat 09:44:56 AM 43.1114 -75.5092 277° West 408 470 23,700 1,000 Climbing Boston Center
Sat 09:45:56 AM 43.1239 -75.6661 276° West 408 470 24,700 1,000 Climbing Boston Center
Sat 09:46:56 AM 43.1339 -75.8203 275° West 413 475 25,700 800 Climbing Boston Center
Sat 09:47:56 AM 43.1458 -75.9778 276° West 413 475 26,300 563 Climbing Boston Center
Sat 09:49:36 AM 43.1583 -76.2453 274° West 406 467 27,200 563 Climbing Cleveland Center
Sat 09:50:36 AM 43.1436 -76.4086 263° West 420 483 27,800 400 Climbing Cleveland Center
Sat 09:51:36 AM 43.1306 -76.5744 264° West 434 499 28,000 100 Climbing Cleveland Center
Sat 09:52:36 AM 43.1119 -76.7606 262° West 446 513 28,000  Level Cleveland Center
Sat 09:53:36 AM 43.0967 -76.9322 263° West 452 520 28,000  Level Cleveland Center
Sat 09:54:36 AM 43.0811 -77.1039 263° West 457 526 28,000  Level Cleveland Center
Sat 09:55:36 AM 43.0653 -77.2753 263° West 457 526 28,000  Level Cleveland Center
Sat 09:56:36 AM 43.0472 -77.4553 262° West 468 539 28,000  Level Cleveland Center
Sat 09:57:36 AM 43.0331 -77.6264 264° West 468 539 28,000  Level Cleveland Center
Sat 09:58:36 AM 43.0167 -77.8003 263° West 468 539 28,000  Level Cleveland Center
Sat 09:59:36 AM 42.9997 -77.9744 262° West 468 539 28,000  Level Cleveland Center
Sat 10:00:36 AM 42.9825 -78.1425 262° West 468 539 28,000  Level Cleveland Center
Sat 10:01:36 AM 42.9650 -78.3078 262° West 455 524 28,000  Level Cleveland Center
Sat 10:02:36 AM 42.9475 -78.4700 262° West 449 517 28,000  Level Cleveland Center
Sat 10:03:36 AM 42.9317 -78.6381 263° West 449 517 28,000  Level Cleveland Center
Sat 10:04:36 AM 42.9069 -78.8003 258° West 449 517 28,000  Level Cleveland Center
Sat 10:05:36 AM 42.8844 -78.9653 260° West 449 517 28,000  Level Cleveland Center
Sat 10:06:36 AM 42.8617 -79.1303 259° West 449 517 28,000  Level Cleveland Center
Sat 10:07:36 AM 42.8408 -79.2978 260° West 449 517 28,000  Level Cleveland Center
Sat 10:08:36 AM 42.8111 -79.4625 256° West 449 517 28,000  Level Cleveland Center
Sat 10:09:36 AM 42.7875 -79.6242 259° West 449 517 28,000  Level Cleveland Center
Sat 10:10:36 AM 42.7639 -79.7914 259° West 449 517 28,000  Level Cleveland Center
Sat 10:11:36 AM 42.7483 -79.9583 263° West 449 517 28,000  Level Cleveland Center
Sat 10:12:36 AM 42.7386 -80.1139 265° West 449 517 28,000  Level Cleveland Center
Sat 10:13:36 AM 42.7328 -80.2864 267° West 456 525 28,000  Level Cleveland Center
Sat 10:14:36 AM 42.7247 -80.4700 267° West 456 525 28,000 -50 Level Cleveland Center
Sat 10:15:36 AM 42.7186 -80.6369 267° West 456 525 27,900 -900 Descending Cleveland Center
Sat 10:16:36 AM 42.7122 -80.8008 267° West 456 525 26,200 -1,700 Descending Cleveland Center
Sat 10:17:36 AM 42.6992 -80.9506 263° West 426 490 24,500 -1,100 Descending Cleveland Center
Sat 10:18:36 AM 42.6819 -81.1000 261° West 407 468 24,000 -550 Descending Cleveland Center
Sat 10:19:36 AM 42.6647 -81.2494 261° West 407 468 23,400 -950 Descending Cleveland Center
Sat 10:20:36 AM 42.6469 -81.4075 261° West 422 486 22,100 -700 Descending Cleveland Center
Sat 10:21:36 AM 42.6311 -81.5511 262° West 405 466 22,000 -50 Descending Cleveland Center
Sat 10:22:36 AM 42.6111 -81.7003 260° West 405 466 22,000  Level Cleveland Center
Sat 10:23:36 AM 42.6158 -81.8528 272° West 405 466 22,000 -750 Level Cleveland Center
Sat 10:24:36 AM 42.6056 -82.0019 265° West 400 460 20,500 -1,900 Descending Cleveland Center
Sat 10:25:36 AM 42.5808 -82.1397 256° West 400 460 18,200 -2,094 Descending Cleveland Center
Sat 10:26:22 AM 42.5628 -82.2436 257° West 363 418 16,800 -2,020 Descending Cleveland Center
Sat 10:27:17 AM 42.5422 -82.3614 257° West 356 410 14,800 -2,270 Descending Cleveland Center
Sat 10:27:36 AM 42.5333 -82.4033 254° West 369 425 14,000 -2,291 Descending Cleveland Center
Sat 10:28:12 AM 42.5194 -82.4847 257° West 361 415 12,700 -2,000 Descending Cleveland Center
Sat 10:28:36 AM 42.5083 -82.5350 253° West 364 419 12,000 -1,377 Descending Cleveland Center
Sat 10:29:13 AM 42.4861 -82.6047 247° West 330 380 11,300 -1,200 Descending Cleveland Center
Sat 10:29:36 AM 42.4708 -82.6464 244° Southwest 353 406 10,800 -1,343 Descending Cleveland Center
Sat 10:30:20 AM 42.4403 -82.7214 241° Southwest 286 329 9,800 -1,500 Descending Cleveland Center
Sat 10:30:36 AM 42.4275 -82.7408 228° Southwest 321 369 9,300 -1,091 Descending Cleveland Center
Sat 10:31:15 AM 42.4094 -82.8075 250° West 287 330 8,800 -1,200 Descending Cleveland Center
Sat 10:31:36 AM 42.4089 -82.8414 269° West 295 339 8,100 -1,881 Descending Cleveland Center
Sat 10:32:22 AM 42.4072 -82.9256 268° West 288 331 6,700 -1,178 Descending Cleveland Center
Sat 10:33:23 AM 42.4006 -83.0350 265° West 273 314 6,000 -879 Descending Cleveland Center
Sat 10:34:18 AM 42.3967 -83.1194 266° West 239 275 5,000 -822 Descending Cleveland Center
Sat 10:34:36 AM 42.3903 -83.1331 238° Southwest 261 300 5,000 -545 Level Cleveland Center
Sat 10:35:13 AM 42.3725 -83.1831 244° Southwest 222 255 4,500 -1,000 Descending Cleveland Center
Sat 10:35:36 AM 42.3636 -83.2078 244° Southwest 230 265 4,000 -1,082 Descending Cleveland Center
Sat 10:36:14 AM 42.3417 -83.2492 234° Southwest 193 222 3,400 -947 Descending Cleveland Center

Login

Don't have an account? Register now (free) for customized features, flight alerts, and more!